Time;durP1;ratioP1;P1;durP2;ratioP2;P2;SDS_P1;SDS_P2;PMS_P1;PMS_P2;Temp;Humidity;BMP_temperature;BMP_pressure;BME280_temperature;BME280_humidity;BME280_pressure;Samples;Min_cycle;Max_cycle;Signal;HPM_P1;HPM_P2
2022/01/01 00:01:17;;;;;;;;;;;;;;;18.99;52.57;102140.88;4984972;28;19918;-44
2022/01/01 00:03:42;;;;;;;;;;;;;;;18.98;52.57;102145.38;4984397;28;19954;-45
2022/01/01 00:06:07;;;;;;;;;;;;;;;18.98;52.75;102152.63;4985065;28;19918;-44
2022/01/01 00:08:32;;;;;;;;;;;;;;;18.97;52.75;102151.78;4967269;28;19918;-46
2022/01/01 00:10:57;;;;;;;;;;;;;;;18.97;52.69;102161.72;4984839;28;19922;-46
2022/01/01 00:13:23;;;;;;;;;;;;;;;18.95;52.77;102153.78;4984494;28;19914;-44
2022/01/01 00:15:48;;;;;;;;;;;;;;;18.96;52.67;102165.41;4985026;28;19914;-46
2022/01/01 00:18:13;;;;;;;;;;;;;;;18.96;52.63;102170.78;4984052;28;19984;-43
2022/01/01 00:20:38;;;;;;;;;;;;;;;18.95;52.69;102169.09;4984627;28;20509;-41
2022/01/01 00:23:03;;;;;;;;;;;;;;;18.94;52.64;102168.22;4984550;28;19914;-44
2022/01/01 00:25:28;;;;;;;;;;;;;;;18.94;52.37;102173.59;4983332;28;20028;-43
2022/01/01 00:27:54;;;;;;;;;;;;;;;18.92;52.51;102172.91;4984411;28;19985;-41
2022/01/01 00:30:19;;;;;;;;;;;;;;;18.92;52.73;102166.66;4984385;28;20279;-43
2022/01/01 00:32:44;;;;;;;;;;;;;;;18.91;52.54;102178.44;4984311;28;19918;-45
2022/01/01 00:35:09;;;;;;;;;;;;;;;18.90;52.31;102185.69;4983946;28;19918;-43
2022/01/01 00:37:34;;;;;;;;;;;;;;;18.90;52.61;102188.38;4984490;28;19937;-43
2022/01/01 00:40:00;;;;;;;;;;;;;;;18.90;52.76;102198.28;4984315;28;19914;-44
2022/01/01 00:42:25;;;;;;;;;;;;;;;18.90;52.41;102200.97;4984198;28;19957;-42
2022/01/01 00:44:50;;;;;;;;;;;;;;;18.90;52.43;102195.59;4983990;28;19914;-46
2022/01/01 00:47:15;;;;;;;;;;;;;;;18.88;52.62;102193.03;4983802;28;19921;-42
2022/01/01 00:49:40;;;;;;;;;;;;;;;18.88;52.33;102186.81;4983389;28;19941;-44
2022/01/01 00:52:06;;;;;;;;;;;;;;;18.87;52.63;102188.66;4984309;28;19937;-42
2022/01/01 00:54:31;;;;;;;;;;;;;;;18.87;52.26;102190.50;4984208;28;19918;-40
2022/01/01 00:56:56;;;;;;;;;;;;;;;18.85;52.54;102190.59;4983934;28;20354;-43
2022/01/01 00:59:21;;;;;;;;;;;;;;;18.85;52.47;102178.97;4983740;28;19921;-44
2022/01/01 01:01:46;;;;;;;;;;;;;;;18.84;52.66;102183.53;4982542;28;19920;-44
2022/01/01 01:04:12;;;;;;;;;;;;;;;18.84;52.45;102186.22;4983254;28;19918;-45
2022/01/01 01:06:37;;;;;;;;;;;;;;;18.84;52.38;102174.59;4984075;28;19914;-46
2022/01/01 01:09:02;;;;;;;;;;;;;;;18.83;52.40;102179.13;4983899;28;19925;-44
2022/01/01 01:11:28;;;;;;;;;;;;;;;18.83;52.39;102181.81;4984337;28;19914;-46
2022/01/01 01:13:58;;;;;;;;;;;;;;;18.72;52.45;102165.75;4982497;28;20334;-48
2022/01/01 01:16:24;;;;;;;;;;;;;;;18.81;52.41;102189.19;4984121;28;19945;-46
2022/01/01 01:18:50;;;;;;;;;;;;;;;18.81;52.49;102180.25;4981640;28;19926;-43
2022/01/01 01:21:15;;;;;;;;;;;;;;;18.81;52.37;102180.25;4982708;28;20290;-46
2022/01/01 01:23:41;;;;;;;;;;;;;;;18.79;52.52;102179.53;4984064;28;19914;-43
2022/01/01 01:26:08;;;;;;;;;;;;;;;18.78;52.56;102181.38;4983594;28;20299;-44
2022/01/01 01:28:33;;;;;;;;;;;;;;;18.77;52.49;102185.06;4982414;28;19918;-42
2022/01/01 01:30:58;;;;;;;;;;;;;;;18.78;52.28;102176.00;4983512;28;19986;-43
2022/01/01 01:33:23;;;;;;;;;;;;;;;18.77;52.46;102168.03;4983093;28;19973;-46
2022/01/01 01:35:48;;;;;;;;;;;;;;;18.76;52.36;102175.28;4983760;28;19925;-45
2022/01/01 01:38:14;;;;;;;;;;;;;;;18.76;52.38;102182.50;4982556;28;20580;-45
2022/01/01 01:40:39;;;;;;;;;;;;;;;18.76;52.52;102187.88;4983700;28;19956;-43
2022/01/01 01:43:09;;;;;;;;;;;;;;;18.75;52.63;102186.19;4983479;28;19921;-44
2022/01/01 01:45:35;;;;;;;;;;;;;;;18.74;52.35;102190.72;4982624;28;19914;-44
2022/01/01 01:48:00;;;;;;;;;;;;;;;18.75;52.44;102186.19;4983436;28;19925;-42
2022/01/01 01:50:25;;;;;;;;;;;;;;;18.74;52.33;102182.66;4983115;28;19920;-45
2022/01/01 01:52:51;;;;;;;;;;;;;;;18.73;52.31;102187.19;4982483;28;19914;-44
2022/01/01 01:55:17;;;;;;;;;;;;;;;18.73;52.42;102189.00;4982211;28;20294;-47
2022/01/01 01:57:42;;;;;;;;;;;;;;;18.72;52.21;102190.00;4983585;28;19914;-43
2022/01/01 02:00:43;;;;;;;;;;;;;;;18.72;52.48;102187.31;4986760;28;20669;-43
2022/01/01 02:03:03;;;;;;;;;;;;;;;18.71;52.28;102191.84;4987081;28;20540;-43
2022/01/01 02:05:28;;;;;;;;;;;;;;;18.70;52.30;102192.84;4986643;28;19924;-49
2022/01/01 02:07:53;;;;;;;;;;;;;;;18.69;52.17;102201.91;4987351;28;19977;-45
2022/01/01 02:10:19;;;;;;;;;;;;;;;18.71;52.33;102207.16;4985871;28;19920;-47
2022/01/01 02:12:50;;;;;;;;;;;;;;;18.70;52.28;102210.84;4987113;28;19914;-45
2022/01/01 02:15:37;;;;;;;;;;;;;;;18.68;52.09;102216.31;4986973;28;20338;-44
2022/01/01 02:18:02;;;;;;;;;;;;;;;18.68;52.43;102226.25;4986858;28;19922;-42
2022/01/01 02:20:28;;;;;;;;;;;;;;;18.68;52.36;102229.78;4969020;28;19957;-44
2022/01/01 02:22:58;;;;;;;;;;;;;;;18.67;52.12;102230.78;4975464;28;19915;-43
2022/01/01 02:25:23;;;;;;;;;;;;;;;18.68;52.25;102231.63;4967472;28;19978;-46
2022/01/01 02:27:48;;;;;;;;;;;;;;;18.66;52.18;102221.00;4998084;28;19925;-42
2022/01/01 02:30:14;;;;;;;;;;;;;;;18.66;52.42;102221.00;4967228;29;19918;-47
2022/01/01 02:32:39;;;;;;;;;;;;;;;18.66;52.13;102222.84;4967315;28;20292;-44
2022/01/01 02:35:06;;;;;;;;;;;;;;;18.64;52.28;102216.72;4965823;28;19919;-47
2022/01/01 02:37:31;;;;;;;;;;;;;;;18.65;52.45;102229.25;4972342;28;19918;-45
2022/01/01 02:39:57;;;;;;;;;;;;;;;18.63;52.19;102221.28;4986575;28;19965;-43
2022/01/01 02:42:22;;;;;;;;;;;;;;;18.63;52.21;102217.72;4986476;28;20583;-43
2022/01/01 02:44:50;;;;;;;;;;;;;;;18.63;52.06;102210.50;4986550;28;19918;-46
2022/01/01 02:47:15;;;;;;;;;;;;;;;18.62;52.21;102216.03;4986496;28;19921;-46
2022/01/01 02:49:40;;;;;;;;;;;;;;;18.61;52.17;102217.88;4985588;28;19918;-44
2022/01/01 02:52:05;;;;;;;;;;;;;;;18.62;52.16;102224.09;4986328;28;19941;-42
2022/01/01 02:54:30;;;;;;;;;;;;;;;18.60;52.16;102216.16;4985042;28;19915;-47
2022/01/01 02:56:55;;;;;;;;;;;;;;;18.44;52.39;102186.19;4986005;28;19914;-43
2022/01/01 02:59:21;;;;;;;;;;;;;;;18.60;52.31;102215.28;4985964;28;19914;-45
2022/01/01 03:01:46;;;;;;;;;;;;;;;18.59;52.37;102217.13;4985793;28;19928;-43
2022/01/01 03:04:11;;;;;;;;;;;;;;;18.60;52.33;102220.69;4985468;28;19918;-42
2022/01/01 03:06:36;;;;;;;;;;;;;;;18.59;52.40;102216.28;5017798;28;19914;-42
2022/01/01 03:09:01;;;;;;;;;;;;;;;18.58;52.16;102209.19;4985472;28;20375;-41
2022/01/01 03:11:26;;;;;;;;;;;;;;;18.57;52.17;102202.97;4986114;28;19914;-43
2022/01/01 03:13:52;;;;;;;;;;;;;;;18.58;52.15;102198.44;4985660;28;20441;-46
2022/01/01 03:16:17;;;;;;;;;;;;;;;18.57;52.05;102205.66;4985893;28;19921;-43
2022/01/01 03:18:42;;;;;;;;;;;;;;;18.56;52.32;102198.53;4985004;28;20013;-45
2022/01/01 03:21:07;;;;;;;;;;;;;;;18.56;52.04;102193.16;5017265;28;20272;-43
2022/01/01 03:23:33;;;;;;;;;;;;;;;18.56;52.06;102197.69;5017241;28;19914;-43
2022/01/01 03:25:58;;;;;;;;;;;;;;;18.55;52.30;102191.47;4985625;28;19921;-45
2022/01/01 03:28:23;;;;;;;;;;;;;;;18.55;52.19;102202.22;4985321;28;19968;-42
2022/01/01 03:30:49;;;;;;;;;;;;;;;18.54;52.13;102192.47;4985451;28;20427;-42
2022/01/01 03:33:14;;;;;;;;;;;;;;;18.54;52.02;102195.16;4985309;28;19922;-43
2022/01/01 03:35:39;;;;;;;;;;;;;;;18.54;52.08;102203.22;4985658;28;19926;-42
2022/01/01 03:38:04;;;;;;;;;;;;;;;18.53;52.16;102209.59;4984132;28;19938;-44
2022/01/01 03:40:29;;;;;;;;;;;;;;;18.53;52.21;102214.16;4985467;28;19924;-42
2022/01/01 03:42:54;;;;;;;;;;;;;;;18.53;52.06;102211.47;5016569;28;20368;-45
2022/01/01 03:45:19;;;;;;;;;;;;;;;18.43;52.09;102197.91;4985418;28;20010;-42
2022/01/01 03:47:45;;;;;;;;;;;;;;;18.52;52.12;102202.53;4985298;28;19914;-42
2022/01/01 03:50:10;;;;;;;;;;;;;;;18.51;52.07;102198.09;4984887;28;19914;-43
2022/01/01 03:52:39;;;;;;;;;;;;;;;18.51;52.16;102208.03;4985219;28;19914;-44
2022/01/01 03:55:05;;;;;;;;;;;;;;;18.49;52.15;102205.47;4985069;28;19914;-44
2022/01/01 03:57:30;;;;;;;;;;;;;;;18.50;52.22;102207.19;4984904;28;19925;-44
2022/01/01 03:59:55;;;;;;;;;;;;;;;18.50;52.22;102215.25;4991396;28;19918;-43
2022/01/01 04:02:20;;;;;;;;;;;;;;;18.49;52.18;102209.03;4985040;28;19969;-42
2022/01/01 04:04:45;;;;;;;;;;;;;;;18.48;52.10;102204.63;4984533;28;20364;-43
2022/01/01 04:07:10;;;;;;;;;;;;;;;18.49;51.98;102208.16;4984957;28;19932;-43
2022/01/01 04:09:35;;;;;;;;;;;;;;;18.48;51.90;102217.25;4984884;28;19929;-43
2022/01/01 04:12:01;;;;;;;;;;;;;;;18.38;52.06;102200.16;4984755;28;20482;-42
2022/01/01 04:14:26;;;;;;;;;;;;;;;18.47;52.15;102216.38;4984814;28;19914;-43
2022/01/01 04:16:53;;;;;;;;;;;;;;;18.46;51.93;102229.97;4984777;28;19914;-44
2022/01/01 04:19:19;;;;;;;;;;;;;;;18.47;51.96;102237.06;4984000;28;19932;-44
2022/01/01 04:21:44;;;;;;;;;;;;;;;18.47;52.18;102235.22;4984091;28;19914;-42
2022/01/01 04:24:09;;;;;;;;;;;;;;;18.47;52.13;102231.69;4984796;28;19933;-44
2022/01/01 04:26:35;;;;;;;;;;;;;;;18.46;51.93;102224.59;4984436;28;19921;-44
2022/01/01 04:29:00;;;;;;;;;;;;;;;18.45;52.05;102228.28;4984047;28;20478;-44
2022/01/01 04:31:25;;;;;;;;;;;;;;;18.45;52.13;102225.59;4984648;28;19994;-44
2022/01/01 04:33:50;;;;;;;;;;;;;;;18.44;52.07;102218.50;5015030;28;19914;-42
2022/01/01 04:36:15;;;;;;;;;;;;;;;18.43;51.98;102225.69;4983400;28;19921;-44
2022/01/01 04:38:42;;;;;;;;;;;;;;;18.43;51.96;102227.53;5015598;28;19918;-46
2022/01/01 04:41:08;;;;;;;;;;;;;;;18.43;52.19;102227.53;4984295;28;19914;-43
2022/01/01 04:43:33;;;;;;;;;;;;;;;18.42;51.88;102224.00;5015356;28;19914;-43
2022/01/01 04:45:59;;;;;;;;;;;;;;;18.42;52.03;102228.53;4984364;28;19921;-45
2022/01/01 04:48:24;;;;;;;;;;;;;;;18.42;52.00;102233.91;4998425;28;19925;-43
2022/01/01 04:50:49;;;;;;;;;;;;;;;18.42;51.90;102236.63;4984386;28;19924;-45
2022/01/01 04:53:17;;;;;;;;;;;;;;;18.41;52.00;102241.16;4984108;28;20005;-45
2022/01/01 04:55:42;;;;;;;;;;;;;;;18.41;52.08;102238.47;4984220;28;19946;-43
2022/01/01 04:58:08;;;;;;;;;;;;;;;18.41;51.88;102226.84;4984063;28;19918;-42
2022/01/01 05:00:33;;;;;;;;;;;;;;;18.39;51.89;102228.78;4983910;28;19930;-43
2022/01/01 05:02:58;;;;;;;;;;;;;;;18.39;52.05;102224.28;4983849;28;19922;-42
2022/01/01 05:05:23;;;;;;;;;;;;;;;18.27;52.00;102198.44;4983628;28;19914;-46
2022/01/01 05:07:49;;;;;;;;;;;;;;;18.38;52.15;102216.31;4982675;28;19918;-44
2022/01/01 05:10:14;;;;;;;;;;;;;;;18.38;51.90;102219.88;4984135;28;19952;-43
2022/01/01 05:12:40;;;;;;;;;;;;;;;18.38;52.06;102225.25;4983913;28;19960;-43
2022/01/01 05:15:05;;;;;;;;;;;;;;;18.37;52.02;102225.41;4983905;28;20294;-48
2022/01/01 05:17:30;;;;;;;;;;;;;;;18.37;52.02;102220.84;4983723;28;19914;-44
2022/01/01 05:19:55;;;;;;;;;;;;;;;18.38;51.90;102214.47;4983425;28;19911;-43
2022/01/01 05:22:20;;;;;;;;;;;;;;;18.37;52.12;102207.41;4982683;28;19914;-42
2022/01/01 05:24:46;;;;;;;;;;;;;;;18.37;51.93;102203.84;4983575;28;19921;-45
2022/01/01 05:27:11;;;;;;;;;;;;;;;18.30;52.05;102199.97;4983842;28;19917;-44
2022/01/01 05:29:36;;;;;;;;;;;;;;;18.36;52.07;102207.53;4983257;28;20014;-42
2022/01/01 05:32:01;;;;;;;;;;;;;;;18.36;51.83;102213.78;4984024;28;19914;-44
2022/01/01 05:34:26;;;;;;;;;;;;;;;18.36;51.74;102208.38;4987068;28;20004;-42
2022/01/01 05:36:51;;;;;;;;;;;;;;;18.35;51.94;102222.84;4987827;28;20298;-45
2022/01/01 05:39:17;;;;;;;;;;;;;;;18.36;51.89;102213.78;4988015;28;19938;-46
2022/01/01 05:41:42;;;;;;;;;;;;;;;18.36;52.07;102215.63;4987814;28;20395;-46
2022/01/01 05:44:07;;;;;;;;;;;;;;;18.36;51.80;102208.38;4987373;28;19914;-43
2022/01/01 05:46:32;;;;;;;;;;;;;;;18.35;51.77;102208.50;4987602;28;19914;-43
2022/01/01 05:48:58;;;;;;;;;;;;;;;18.34;51.71;102210.34;4986892;28;19918;-44
2022/01/01 05:51:23;;;;;;;;;;;;;;;18.35;51.95;102214.78;5018982;28;19914;-48
2022/01/01 05:53:48;;;;;;;;;;;;;;;18.34;51.78;102210.34;4987345;28;19918;-44
2022/01/01 05:56:13;;;;;;;;;;;;;;;18.33;51.92;102208.66;4987345;28;20004;-43
2022/01/01 05:58:38;;;;;;;;;;;;;;;18.33;51.90;102210.50;4986808;28;20279;-43
2022/01/01 06:01:03;;;;;;;;;;;;;;;18.33;51.80;102216.72;4987517;28;19982;-45
2022/01/01 06:03:28;;;;;;;;;;;;;;;18.33;51.91;102219.41;4986685;28;19921;-44
2022/01/01 06:05:54;;;;;;;;;;;;;;;18.33;51.77;102218.56;4987300;28;19941;-48
2022/01/01 06:08:19;;;;;;;;;;;;;;;18.32;51.80;102212.34;4987094;28;19922;-44
2022/01/01 06:10:44;;;;;;;;;;;;;;;18.18;51.69;102193.81;4985974;28;19914;-45
2022/01/01 06:13:09;;;;;;;;;;;;;;;18.32;51.92;102214.19;4986886;28;19918;-46
2022/01/01 06:15:34;;;;;;;;;;;;;;;18.32;51.87;102208.78;4987157;28;19925;-42
2022/01/01 06:18:00;;;;;;;;;;;;;;;18.31;51.96;102207.06;4986697;28;19934;-45
2022/01/01 06:20:25;;;;;;;;;;;;;;;18.31;51.94;102218.72;4986316;28;19921;-45
2022/01/01 06:22:50;;;;;;;;;;;;;;;18.31;51.66;102210.63;4986912;28;20017;-44
2022/01/01 06:25:15;;;;;;;;;;;;;;;18.31;51.71;102209.75;4986686;28;19925;-42
2022/01/01 06:27:40;;;;;;;;;;;;;;;18.31;51.70;102223.22;4986765;28;20025;-48
2022/01/01 06:30:06;;;;;;;;;;;;;;;18.30;51.65;102219.66;4986622;28;19918;-46
2022/01/01 06:32:31;;;;;;;;;;;;;;;18.30;51.74;102218.81;4986873;28;19938;-44
2022/01/01 06:34:57;;;;;;;;;;;;;;;18.30;51.72;102218.81;4985989;28;19953;-44
2022/01/01 06:37:22;;;;;;;;;;;;;;;18.28;51.68;102218.97;4985324;28;19917;-42
2022/01/01 06:39:47;;;;;;;;;;;;;;;18.28;51.72;102224.34;4986588;28;19921;-45
2022/01/01 06:42:12;;;;;;;;;;;;;;;18.29;51.71;102211.75;4986759;28;20450;-44
2022/01/01 06:44:37;;;;;;;;;;;;;;;18.28;51.57;102221.66;4985548;28;19918;-46
2022/01/01 06:47:03;;;;;;;;;;;;;;;18.27;51.74;102206.50;4986556;28;19942;-44
2022/01/01 06:49:28;;;;;;;;;;;;;;;18.28;51.75;102210.03;4985816;28;19918;-43
2022/01/01 06:51:53;;;;;;;;;;;;;;;18.27;51.91;102219.97;4986550;28;19914;-46
2022/01/01 06:54:18;;;;;;;;;;;;;;;18.26;51.83;102220.91;4986434;28;19921;-44
2022/01/01 06:56:43;;;;;;;;;;;;;;;18.26;51.89;102215.53;4986373;28;19937;-45
2022/01/01 06:59:09;;;;;;;;;;;;;;;18.26;51.72;102218.22;5016980;28;19918;-45
2022/01/01 07:01:35;;;;;;;;;;;;;;;18.26;51.66;102223.63;4986586;28;19953;-44
2022/01/01 07:04:00;;;;;;;;;;;;;;;18.26;51.70;102220.06;4985362;28;20236;-43
2022/01/01 07:06:25;;;;;;;;;;;;;;;18.25;51.65;102227.31;4986157;28;19946;-44
2022/01/01 07:08:50;;;;;;;;;;;;;;;18.25;51.68;102235.38;4985985;28;20004;-45
2022/01/01 07:11:15;;;;;;;;;;;;;;;18.25;51.65;102232.69;4986029;28;19921;-45
2022/01/01 07:13:40;;;;;;;;;;;;;;;18.26;51.60;102230.84;4985847;28;19918;-45
2022/01/01 07:16:06;;;;;;;;;;;;;;;18.26;51.53;102241.63;4985815;28;20418;-44
2022/01/01 07:18:31;;;;;;;;;;;;;;;18.23;51.82;102240.91;4984966;28;19926;-43
2022/01/01 07:20:56;;;;;;;;;;;;;;;18.24;51.82;102248.00;4985888;28;19914;-43
2022/01/01 07:23:21;;;;;;;;;;;;;;;18.23;51.63;102254.38;4986008;28;19959;-47
2022/01/01 07:25:46;;;;;;;;;;;;;;;18.22;51.63;102243.72;4985538;28;19945;-42
2022/01/01 07:28:14;;;;;;;;;;;;;;;18.14;51.95;102232.78;4985147;28;19919;-45
2022/01/01 07:30:39;;;;;;;;;;;;;;;18.24;51.72;102249.84;4984979;28;19918;-46
2022/01/01 07:33:04;;;;;;;;;;;;;;;18.25;51.84;102259.59;4984937;28;19920;-45
2022/01/01 07:35:30;;;;;;;;;;;;;;;18.26;51.79;102255.91;4984319;28;19918;-45
2022/01/01 07:37:55;;;;;;;;;;;;;;;18.27;51.76;102257.66;4985102;28;19921;-46
2022/01/01 07:40:20;;;;;;;;;;;;;;;18.29;51.87;102258.34;4985022;28;19918;-45
2022/01/01 07:42:46;;;;;;;;;;;;;;;18.29;51.68;102266.44;4984802;28;20435;-45
2022/01/01 07:45:11;;;;;;;;;;;;;;;18.29;51.51;102258.34;4985057;28;19918;-43
2022/01/01 07:47:36;;;;;;;;;;;;;;;18.30;51.55;102262.75;4984679;28;19969;-42
2022/01/01 07:50:02;;;;;;;;;;;;;;;18.32;51.68;102260.78;4984250;28;20345;-45
2022/01/01 07:52:27;;;;;;;;;;;;;;;18.31;51.73;102269.88;4982483;28;19918;-47
2022/01/01 07:54:52;;;;;;;;;;;;;;;18.32;51.68;102262.63;4984534;28;19941;-43
2022/01/01 07:57:17;;;;;;;;;;;;;;;18.32;51.66;102254.56;4985360;28;19918;-47
2022/01/01 07:59:42;;;;;;;;;;;;;;;18.32;51.75;102260.78;4984311;28;19924;-44
2022/01/01 08:02:08;;;;;;;;;;;;;;;18.33;51.68;102264.34;4984633;28;19933;-50
2022/01/01 08:04:33;;;;;;;;;;;;;;;18.33;51.55;102262.50;4983842;28;19937;-46
2022/01/01 08:06:58;;;;;;;;;;;;;;;18.35;51.60;102254.28;4984318;28;19920;-47
2022/01/01 08:09:23;;;;;;;;;;;;;;;18.36;51.51;102247.94;4984536;28;20501;-45
2022/01/01 08:11:50;;;;;;;;;;;;;;;18.36;51.70;102250.63;4984845;28;20413;-44
2022/01/01 08:14:15;;;;;;;;;;;;;;;18.35;51.79;102249.78;4984772;28;19989;-45
2022/01/01 08:17:00;;;;;;;;;;;;;;;18.36;51.64;102269.47;4984797;28;20003;-43
2022/01/01 08:19:25;;;;;;;;;;;;;;;18.37;51.78;102263.94;4983795;28;20406;-43
2022/01/01 08:21:50;;;;;;;;;;;;;;;18.38;51.57;102268.34;4984840;28;20418;-46
2022/01/01 08:24:15;;;;;;;;;;;;;;;18.40;51.87;102268.22;4984935;28;19920;-43
2022/01/01 08:26:41;;;;;;;;;;;;;;;18.41;51.83;102261.84;4984549;28;19914;-43
2022/01/01 08:29:06;;;;;;;;;;;;;;;18.41;51.53;102261.84;4983755;28;19945;-47
2022/01/01 08:31:31;;;;;;;;;;;;;;;18.43;51.74;102262.53;4984080;28;19914;-45
2022/01/01 08:33:56;;;;;;;;;;;;;;;18.45;51.74;102261.44;4982007;28;20048;-46
2022/01/01 08:36:21;;;;;;;;;;;;;;;18.49;51.49;102256.66;4982739;28;20515;-43
2022/01/01 08:38:46;;;;;;;;;;;;;;;18.53;51.70;102258.09;4984052;28;19914;-44
2022/01/01 08:41:11;;;;;;;;;;;;;;;18.56;51.48;102247.03;4984292;28;19961;-44
2022/01/01 08:43:38;;;;;;;;;;;;;;;18.52;51.42;102236.66;4984191;28;20378;-46
2022/01/01 08:46:03;;;;;;;;;;;;;;;18.65;51.40;102250.78;4987554;28;19953;-43
2022/01/01 08:48:28;;;;;;;;;;;;;;;18.72;51.54;102254.66;4987303;28;19945;-46
2022/01/01 08:50:53;;;;;;;;;;;;;;;18.85;51.10;102246.34;4983379;28;19923;-46
2022/01/01 08:53:18;;;;;;;;;;;;;;;19.01;51.22;102252.09;4983979;28;19918;-45
2022/01/01 08:55:43;;;;;;;;;;;;;;;19.17;50.94;102248.88;4983537;28;19929;-44
2022/01/01 08:58:09;;;;;;;;;;;;;;;19.32;50.56;102252.03;4983587;28;19982;-46
2022/01/01 09:00:34;;;;;;;;;;;;;;;19.45;50.13;102252.63;4983582;28;19942;-45
2022/01/01 09:02:59;;;;;;;;;;;;;;;19.49;49.83;102243.25;4965368;28;19925;-46
2022/01/01 09:05:26;;;;;;;;;;;;;;;19.51;49.96;102249.38;4973482;28;19962;-41
2022/01/01 09:07:51;;;;;;;;;;;;;;;19.51;49.70;102248.53;4981722;28;19922;-41
2022/01/01 09:10:19;;;;;;;;;;;;;;;19.49;49.84;102257.59;4982112;28;19925;-43
2022/01/01 09:12:44;;;;;;;;;;;;;;;19.48;49.94;102258.59;4982218;28;19914;-42
2022/01/01 09:15:09;;;;;;;;;;;;;;;19.46;49.85;102260.59;4981568;28;19929;-43
2022/01/01 09:17:34;;;;;;;;;;;;;;;19.44;49.94;102257.16;4980847;28;20016;-41
2022/01/01 09:19:59;;;;;;;;;;;;;;;19.41;50.05;102252.06;4980989;28;19925;-42
2022/01/01 09:22:26;;;;;;;;;;;;;;;19.36;50.15;102246.22;4980293;28;19921;-48
2022/01/01 09:24:51;;;;;;;;;;;;;;;19.33;50.27;102249.22;4979320;28;20868;-46
2022/01/01 09:27:16;;;;;;;;;;;;;;;19.30;50.37;102252.19;4981558;28;19946;-44
2022/01/01 09:29:41;;;;;;;;;;;;;;;19.28;50.48;102247.91;4964119;28;19933;-44
2022/01/01 09:32:06;;;;;;;;;;;;;;;19.26;50.44;102248.06;4983309;28;20394;-44
2022/01/01 09:34:32;;;;;;;;;;;;;;;19.24;50.31;102241.94;4980164;28;19933;-41
2022/01/01 09:36:57;;;;;;;;;;;;;;;19.23;50.62;102232.13;4979338;28;20381;-44
2022/01/01 09:39:24;;;;;;;;;;;;;;;19.20;50.46;102232.44;4979805;28;19949;-45
2022/01/01 09:41:49;;;;;;;;;;;;;;;19.19;50.50;102228.88;4981179;28;20121;-43
2022/01/01 09:44:16;;;;;;;;;;;;;;;19.18;50.89;102229.84;4980768;28;20251;-46
2022/01/01 09:46:42;;;;;;;;;;;;;;;19.19;50.80;102225.31;4979208;28;20013;-47
2022/01/01 09:49:08;;;;;;;;;;;;;;;19.18;50.82;102210.13;4980733;28;20418;-45
2022/01/01 09:51:34;;;;;;;;;;;;;;;19.19;50.66;102210.00;4981115;28;19918;-48
2022/01/01 09:53:59;;;;;;;;;;;;;;;19.20;50.83;102203.63;4981566;28;20015;-43
2022/01/01 09:56:24;;;;;;;;;;;;;;;19.22;50.99;102198.09;4982705;28;20746;-41
2022/01/01 09:58:49;;;;;;;;;;;;;;;19.24;50.74;102201.47;4981077;28;19969;-47
2022/01/01 10:01:15;;;;;;;;;;;;;;;19.27;50.94;102201.22;4982391;28;19918;-48
2022/01/01 10:03:40;;;;;;;;;;;;;;;19.27;50.70;102206.59;4981068;28;19994;-46
2022/01/01 10:06:06;;;;;;;;;;;;;;;19.29;50.71;102203.78;4979938;28;19918;-46
2022/01/01 10:08:31;;;;;;;;;;;;;;;19.29;50.70;102201.94;4980519;28;19918;-50
2022/01/01 10:10:57;;;;;;;;;;;;;;;19.30;50.66;102200.09;4981949;28;19918;-39
2022/01/01 10:13:26;;;;;;;;;;;;;;;19.30;50.71;102195.53;4981004;28;19929;-49
2022/01/01 10:15:54;;;;;;;;;;;;;;;19.29;50.51;102191.16;4979480;28;20006;-44
2022/01/01 10:18:23;;;;;;;;;;;;;;;19.29;50.59;102190.31;4979954;28;19933;-41
2022/01/01 10:20:54;;;;;;;;;;;;;;;19.29;50.46;102190.31;4982922;28;19918;-41
2022/01/01 10:23:26;;;;;;;;;;;;;;;19.27;50.48;102193.13;4979973;28;21156;-43
2022/01/01 10:28:35;;;;;;;;;;;;;;;19.25;50.48;102168.16;4982244;28;20020;-42
2022/01/01 10:31:00;;;;;;;;;;;;;;;19.24;50.62;102174.50;4985042;28;19952;-47
2022/01/01 10:33:25;;;;;;;;;;;;;;;19.23;50.70;102172.81;4982830;28;19918;-49
2022/01/01 10:35:52;;;;;;;;;;;;;;;19.21;50.80;102166.72;4983613;28;20287;-47
2022/01/01 10:38:19;;;;;;;;;;;;;;;19.19;50.61;102158.75;4983488;28;19922;-46
2022/01/01 10:40:45;;;;;;;;;;;;;;;19.19;50.72;102147.13;4982540;28;19941;-47
2022/01/01 10:43:10;;;;;;;;;;;;;;;19.17;50.81;102144.59;4983457;28;19925;-45
2022/01/01 10:45:37;;;;;;;;;;;;;;;19.17;50.60;102141.88;4982946;28;20001;-45
2022/01/01 10:48:03;;;;;;;;;;;;;;;19.18;50.87;102148.13;4983938;28;19976;-47
2022/01/01 10:50:32;;;;;;;;;;;;;;;19.18;50.80;102151.66;4983620;28;19918;-44
2022/01/01 10:53:08;;;;;;;;;;;;;;;19.17;50.75;102149.97;4985262;28;19918;-42
2022/01/01 10:55:33;;;;;;;;;;;;;;;19.18;50.73;102157.06;4985792;28;19994;-47
2022/01/01 10:58:00;;;;;;;;;;;;;;;19.17;50.71;102163.47;4986264;28;19914;-46
2022/01/01 11:00:26;;;;;;;;;;;;;;;19.18;50.42;102175.09;5016950;28;19918;-43
2022/01/01 11:02:55;;;;;;;;;;;;;;;19.17;50.36;102181.47;4985731;28;19925;-44
2022/01/01 11:05:30;;;;;;;;;;;;;;;19.17;50.73;102178.78;4985826;28;19918;-43
2022/01/01 11:07:55;;;;;;;;;;;;;;;19.17;50.60;102179.63;4986133;28;19937;-43
2022/01/01 11:10:21;;;;;;;;;;;;;;;19.17;50.27;102181.47;4979521;28;19926;-44
2022/01/01 11:12:46;;;;;;;;;;;;;;;19.16;50.36;102182.47;4979597;28;19924;-40
2022/01/01 11:15:11;;;;;;;;;;;;;;;19.17;50.58;102181.47;4982743;28;19967;-42
2022/01/01 11:17:36;;;;;;;;;;;;;;;19.16;50.87;102171.69;4983278;28;19929;-45
2022/01/01 11:20:03;;;;;;;;;;;;;;;19.15;50.74;102162.72;4980260;28;20042;-45
2022/01/01 11:22:28;;;;;;;;;;;;;;;19.15;50.90;102164.56;4983215;28;19922;-46
2022/01/01 11:24:53;;;;;;;;;;;;;;;19.14;50.95;102166.44;4964385;28;20442;-44
2022/01/01 11:27:18;;;;;;;;;;;;;;;19.14;51.14;102166.44;4981024;28;20257;-44
2022/01/01 11:29:49;;;;;;;;;;;;;;;19.16;51.34;102171.69;4970801;28;19919;-44
2022/01/01 11:32:14;;;;;;;;;;;;;;;19.15;51.02;102172.66;4988890;28;19921;-49
2022/01/01 11:34:39;;;;;;;;;;;;;;;19.16;51.26;102179.78;4981601;28;19917;-48
2022/01/01 11:37:07;;;;;;;;;;;;;;;19.16;51.08;102175.25;4703924;28;10000259;-41
2022/01/01 11:39:32;;;;;;;;;;;;;;;19.18;51.30;102169.69;4446886;28;10000689;-41
2022/01/01 11:42:14;;;;;;;;;;;;;;;19.20;51.15;102168.56;4981792;28;19968;-43
2022/01/01 11:44:42;;;;;;;;;;;;;;;19.22;50.98;102168.44;4963959;28;19922;-45
2022/01/01 11:47:15;;;;;;;;;;;;;;;19.24;51.01;102163.72;4982858;28;20367;-43
2022/01/01 11:49:40;;;;;;;;;;;;;;;19.27;51.25;102165.31;4980672;28;19930;-43
2022/01/01 11:52:06;;;;;;;;;;;;;;;19.28;51.01;102159.75;4984850;28;20327;-46
2022/01/01 11:54:32;;;;;;;;;;;;;;;19.29;51.01;102163.34;4983843;28;20001;-42
2022/01/01 11:56:58;;;;;;;;;;;;;;;19.30;50.74;102175.81;4974308;28;19921;-46
2022/01/01 11:59:24;;;;;;;;;;;;;;;19.30;50.90;102168.59;4974901;28;19985;-44
2022/01/01 12:02:16;;;;;;;;;;;;;;;19.31;50.84;102158.63;4983398;28;19949;-45
2022/01/01 12:04:42;;;;;;;;;;;;;;;19.30;50.57;102163.19;4954141;28;19922;-48
2022/01/01 12:07:16;;;;;;;;;;;;;;;19.32;50.62;102157.63;4984745;28;19919;-46
2022/01/01 12:10:00;;;;;;;;;;;;;;;19.31;50.74;102161.34;4983849;28;19953;-45
2022/01/01 12:12:44;;;;;;;;;;;;;;;19.30;50.51;102160.50;4983882;28;19918;-46
2022/01/01 12:15:24;;;;;;;;;;;;;;;19.31;50.77;102164.03;4982073;28;19925;-44
2022/01/01 12:17:49;;;;;;;;;;;;;;;19.31;50.87;102164.03;4980492;28;19922;-45
2022/01/01 12:20:15;;;;;;;;;;;;;;;19.30;50.72;102162.34;4982667;28;19914;-46
2022/01/01 12:22:45;;;;;;;;;;;;;;;19.29;50.93;102147.16;4973009;28;19994;-43
2022/01/01 12:25:13;;;;;;;;;;;;;;;19.28;51.02;102151.66;4982293;28;19985;-41
2022/01/01 12:27:41;;;;;;;;;;;;;;;19.29;51.11;102153.41;4981903;28;19922;-43
2022/01/01 12:30:07;;;;;;;;;;;;;;;19.28;51.07;102143.59;4982333;28;19940;-45
2022/01/01 12:32:35;;;;;;;;;;;;;;;19.29;50.98;102147.16;4982113;28;19986;-43